QLK123D YMML-YHOT
Flight info
| Callsign | QLK123D |
|---|---|
| Flight time | N/A |
| Altitude | 19000 |
| Route | CORRS DCT RIMSU DCT BM2EC |
| Aircraft | DH8D/M-SDE2E3FGRY/H |
Departure
| Time | 2026-04-30 10:22 |
|---|---|
| Airport | Melbourne Airport (YMML) |
Arrival
| Time | N/A |
|---|---|
| Airport | Mount Hotham Airport (YHOT) |
| Time | Latitude | Longitude | Altitude | Speed | Heading |
|---|---|---|---|---|---|
| 2026-04-30 10:12 | -37.67822 | 144.84717 | 443 ft | 0 kts | 128° |
| 2026-04-30 10:17 | -37.67804 | 144.84689 | 443 ft | 2 kts | 128° |
| 2026-04-30 10:17 | -37.67777 | 144.84651 | 443 ft | 2 kts | 157° |
| 2026-04-30 10:17 | -37.67752 | 144.84653 | 443 ft | 2 kts | 213° |
| 2026-04-30 10:18 | -37.67739 | 144.84676 | 443 ft | 1 kts | 260° |
| 2026-04-30 10:18 | -37.67739 | 144.84677 | 443 ft | 0 kts | 260° |
| 2026-04-30 10:19 | -37.67744 | 144.84654 | 443 ft | 6 kts | 246° |
| 2026-04-30 10:20 | -37.67787 | 144.84599 | 443 ft | 9 kts | 207° |
| 2026-04-30 10:20 | -37.67835 | 144.84438 | 443 ft | 13 kts | 262° |
| 2026-04-30 10:20 | -37.67849 | 144.84320 | 443 ft | 19 kts | 261° |
| 2026-04-30 10:21 | -37.67873 | 144.84140 | 443 ft | 19 kts | 260° |
| 2026-04-30 10:21 | -37.67886 | 144.84000 | 443 ft | 12 kts | 283° |
| 2026-04-30 10:21 | -37.67837 | 144.83960 | 443 ft | 2 kts | 351° |
| 2026-04-30 10:21 | -37.67825 | 144.83958 | 443 ft | 10 kts | 352° |
| 2026-04-30 10:22 | -37.67401 | 144.83876 | 444 ft | 108 kts | 351° |
| 2026-04-30 10:22 | -37.66450 | 144.83701 | 533 ft | 155 kts | 348° |
| 2026-04-30 10:22 | -37.65388 | 144.83487 | 1150 ft | 157 kts | 352° |
| 2026-04-30 10:22 | -37.64307 | 144.83301 | 1722 ft | 169 kts | 353° |
| 2026-04-30 10:23 | -37.63097 | 144.83048 | 2269 ft | 178 kts | 352° |
| 2026-04-30 10:23 | -37.61877 | 144.82803 | 3003 ft | 178 kts | 352° |
| 2026-04-30 10:23 | -37.60665 | 144.82570 | 3726 ft | 179 kts | 352° |
| 2026-04-30 10:23 | -37.59430 | 144.82369 | 4442 ft | 181 kts | 359° |
| 2026-04-30 10:24 | -37.58299 | 144.82947 | 4979 ft | 192 kts | 46° |
| 2026-04-30 10:24 | -37.57920 | 144.84567 | 5463 ft | 205 kts | 96° |
| 2026-04-30 10:24 | -37.58434 | 144.86275 | 5959 ft | 213 kts | 115° |
| 2026-04-30 10:24 | -37.59135 | 144.87942 | 6529 ft | 217 kts | 116° |
| 2026-04-30 10:25 | -37.59846 | 144.89581 | 7150 ft | 217 kts | 117° |
| 2026-04-30 10:25 | -37.60586 | 144.91251 | 7744 ft | 219 kts | 117° |
| 2026-04-30 10:25 | -37.61336 | 144.92926 | 8337 ft | 219 kts | 117° |
| 2026-04-30 10:25 | -37.62082 | 144.94579 | 8916 ft | 220 kts | 117° |
| 2026-04-30 10:26 | -37.62841 | 144.96251 | 9496 ft | 221 kts | 117° |
| 2026-04-30 10:26 | -37.63607 | 144.97932 | 10038 ft | 223 kts | 117° |
| 2026-04-30 10:26 | -37.64374 | 144.99609 | 10568 ft | 225 kts | 118° |
| 2026-04-30 10:26 | -37.65165 | 145.01334 | 11090 ft | 227 kts | 118° |
| 2026-04-30 10:27 | -37.65949 | 145.03043 | 11601 ft | 229 kts | 118° |
| 2026-04-30 10:27 | -37.66745 | 145.04774 | 12083 ft | 231 kts | 118° |
| 2026-04-30 10:27 | -37.67558 | 145.06546 | 12586 ft | 233 kts | 118° |
| 2026-04-30 10:27 | -37.68366 | 145.08304 | 13057 ft | 234 kts | 119° |
| 2026-04-30 10:28 | -37.69188 | 145.10095 | 13523 ft | 236 kts | 119° |
| 2026-04-30 10:28 | -37.70009 | 145.11883 | 13963 ft | 238 kts | 118° |
| 2026-04-30 10:28 | -37.70842 | 145.13699 | 14398 ft | 239 kts | 119° |
| 2026-04-30 10:28 | -37.71667 | 145.15495 | 14793 ft | 242 kts | 118° |
| 2026-04-30 10:29 | -37.72517 | 145.17349 | 15204 ft | 243 kts | 118° |
| 2026-04-30 10:29 | -37.73371 | 145.19209 | 15559 ft | 245 kts | 118° |
| 2026-04-30 10:29 | -37.74223 | 145.21069 | 15958 ft | 247 kts | 118° |
| 2026-04-30 10:29 | -37.75090 | 145.22963 | 16373 ft | 247 kts | 118° |
| 2026-04-30 10:30 | -37.75948 | 145.24835 | 16716 ft | 249 kts | 118° |
| 2026-04-30 10:30 | -37.76817 | 145.26733 | 17065 ft | 250 kts | 118° |
| 2026-04-30 10:30 | -37.77689 | 145.28639 | 17408 ft | 252 kts | 118° |
| 2026-04-30 10:30 | -37.78562 | 145.30548 | 17742 ft | 254 kts | 118° |
| 2026-04-30 10:31 | -37.79452 | 145.32494 | 18059 ft | 256 kts | 118° |
| 2026-04-30 10:31 | -37.80344 | 145.34448 | 18361 ft | 259 kts | 118° |
| 2026-04-30 10:31 | -37.81242 | 145.36417 | 18705 ft | 259 kts | 119° |
| 2026-04-30 10:31 | -37.82144 | 145.38399 | 19007 ft | 261 kts | 118° |
| 2026-04-30 10:32 | -37.82775 | 145.40536 | 19210 ft | 263 kts | 93° |
| 2026-04-30 10:32 | -37.82568 | 145.42850 | 19298 ft | 269 kts | 76° |
| 2026-04-30 10:32 | -37.82120 | 145.45203 | 19315 ft | 283 kts | 75° |
| 2026-04-30 10:32 | -37.81625 | 145.47676 | 19323 ft | 295 kts | 75° |
| 2026-04-30 10:33 | -37.81102 | 145.50235 | 19329 ft | 307 kts | 75° |
| 2026-04-30 10:33 | -37.80559 | 145.52856 | 19322 ft | 317 kts | 74° |
| 2026-04-30 10:33 | -37.79991 | 145.55579 | 19328 ft | 325 kts | 74° |
| 2026-04-30 10:33 | -37.79407 | 145.58365 | 19331 ft | 333 kts | 75° |
| 2026-04-30 10:34 | -37.78801 | 145.61244 | 19323 ft | 339 kts | 74° |
| 2026-04-30 10:34 | -37.78188 | 145.64143 | 19313 ft | 344 kts | 75° |
| 2026-04-30 10:34 | -37.77571 | 145.67052 | 19321 ft | 347 kts | 74° |
| 2026-04-30 10:34 | -37.76935 | 145.70044 | 19318 ft | 349 kts | 73° |
| 2026-04-30 10:35 | -37.76302 | 145.73004 | 19322 ft | 352 kts | 74° |
| 2026-04-30 10:35 | -37.75666 | 145.75980 | 19323 ft | 354 kts | 73° |
| 2026-04-30 10:35 | -37.74955 | 145.78950 | 19335 ft | 355 kts | 70° |
| 2026-04-30 10:35 | -37.74134 | 145.81874 | 19331 ft | 356 kts | 69° |
| 2026-04-30 10:36 | -37.73288 | 145.84836 | 19332 ft | 357 kts | 69° |
| 2026-04-30 10:36 | -37.72449 | 145.87767 | 19331 ft | 357 kts | 69° |
| 2026-04-30 10:36 | -37.71605 | 145.90712 | 19339 ft | 357 kts | 69° |
| 2026-04-30 10:36 | -37.70759 | 145.93661 | 19345 ft | 357 kts | 69° |
| 2026-04-30 10:37 | -37.69909 | 145.96606 | 19350 ft | 357 kts | 69° |
| 2026-04-30 10:37 | -37.69069 | 145.99542 | 19351 ft | 357 kts | 69° |
| 2026-04-30 10:37 | -37.68222 | 146.02484 | 19358 ft | 357 kts | 69° |
| 2026-04-30 10:37 | -37.67375 | 146.05426 | 19360 ft | 357 kts | 69° |
| 2026-04-30 10:38 | -37.66529 | 146.08359 | 19360 ft | 357 kts | 69° |
| 2026-04-30 10:38 | -37.65680 | 146.11299 | 19363 ft | 357 kts | 69° |
| 2026-04-30 10:38 | -37.64821 | 146.14273 | 19363 ft | 357 kts | 69° |
| 2026-04-30 10:38 | -37.63976 | 146.17194 | 19366 ft | 357 kts | 69° |
| 2026-04-30 10:39 | -37.63125 | 146.20132 | 19363 ft | 357 kts | 69° |
| 2026-04-30 10:39 | -37.62276 | 146.23061 | 19368 ft | 357 kts | 69° |
| 2026-04-30 10:39 | -37.61415 | 146.26027 | 19369 ft | 357 kts | 69° |
| 2026-04-30 10:39 | -37.60564 | 146.28957 | 19362 ft | 356 kts | 69° |
| 2026-04-30 10:40 | -37.59716 | 146.31873 | 19363 ft | 356 kts | 69° |
| 2026-04-30 10:40 | -37.58871 | 146.34775 | 19359 ft | 356 kts | 69° |
| 2026-04-30 10:40 | -37.58011 | 146.37724 | 19366 ft | 357 kts | 69° |
| 2026-04-30 10:40 | -37.57155 | 146.40659 | 19359 ft | 357 kts | 69° |
| 2026-04-30 10:41 | -37.56298 | 146.43593 | 19363 ft | 358 kts | 69° |
| 2026-04-30 10:41 | -37.55438 | 146.46536 | 19368 ft | 358 kts | 69° |
| 2026-04-30 10:41 | -37.54575 | 146.49483 | 19356 ft | 358 kts | 69° |